Time;durP1;ratioP1;P1;durP2;ratioP2;P2;SDS_P1;SDS_P2;PMS_P1;PMS_P2;Temp;Humidity;BMP_temperature;BMP_pressure;BME280_temperature;BME280_humidity;BME280_pressure;Samples;Min_cycle;Max_cycle;Signal;HPM_P1;HPM_P2
2022/12/08 00:01:21;;;;;;;20.60;13.00;;;;;;;;;;5071417;28;20048;-67
2022/12/08 00:03:49;;;;;;;19.00;12.88;;;;;;;;;;5072272;28;20427;-67
2022/12/08 00:09:22;;;;;;;17.73;11.95;;;;;;;;;;5071724;28;20094;-67
2022/12/08 00:11:51;;;;;;;17.33;11.65;;;;;;;;;;5072156;28;20052;-66
2022/12/08 00:14:17;;;;;;;19.05;12.45;;;;;;;;;;5072154;28;20072;-67
2022/12/08 00:16:44;;;;;;;19.75;12.40;;;;;;;;;;5071772;28;20144;-67
2022/12/08 00:19:11;;;;;;;15.98;10.77;;;;;;;;;;5071603;28;20127;-66
2022/12/08 00:21:37;;;;;;;17.40;10.90;;;;;;;;;;5071755;28;20109;-66
2022/12/08 00:24:04;;;;;;;17.33;11.95;;;;;;;;;;5072012;28;20053;-66
2022/12/08 00:26:31;;;;;;;17.30;11.38;;;;;;;;;;5054084;28;20102;-66
2022/12/08 00:28:57;;;;;;;14.85;10.32;;;;;;;;;;5071596;28;20048;-67
2022/12/08 00:31:24;;;;;;;18.77;10.80;;;;;;;;;;5071653;28;20140;-67
2022/12/08 00:33:51;;;;;;;14.85;9.40;;;;;;;;;;5071591;28;20144;-66
2022/12/08 00:36:17;;;;;;;15.38;9.60;;;;;;;;;;5065772;28;20128;-67
2022/12/08 00:38:46;;;;;;;16.80;10.05;;;;;;;;;;5051554;28;20119;-66
2022/12/08 00:41:14;;;;;;;15.50;9.77;;;;;;;;;;5051358;28;20475;-66
2022/12/08 00:43:41;;;;;;;14.48;10.70;;;;;;;;;;5051444;28;20056;-66
2022/12/08 00:46:08;;;;;;;14.93;10.32;;;;;;;;;;5051919;28;20048;-66
2022/12/08 00:48:34;;;;;;;14.68;10.57;;;;;;;;;;5051172;28;20045;-69
2022/12/08 00:51:01;;;;;;;15.55;10.73;;;;;;;;;;5051307;28;20491;-66
2022/12/08 00:53:29;;;;;;;16.80;11.00;;;;;;;;;;5051369;28;20045;-66
2022/12/08 00:55:56;;;;;;;16.77;11.75;;;;;;;;;;5052568;28;21745;-66
2022/12/08 00:58:22;;;;;;;17.40;11.77;;;;;;;;;;5055227;28;20135;-66
2022/12/08 01:00:49;;;;;;;16.90;11.90;;;;;;;;;;5055273;28;20546;-66
2022/12/08 01:03:15;;;;;;;17.85;11.77;;;;;;;;;;5055186;28;20049;-66
2022/12/08 01:05:43;;;;;;;17.13;11.23;;;;;;;;;;5056063;28;20088;-66
2022/12/08 01:08:09;;;;;;;17.88;11.75;;;;;;;;;;5075348;28;20052;-66
2022/12/08 01:10:37;;;;;;;16.00;10.60;;;;;;;;;;5075243;28;20086;-66
2022/12/08 01:13:04;;;;;;;18.35;11.00;;;;;;;;;;5075231;28;20413;-66
2022/12/08 01:15:30;;;;;;;17.05;10.93;;;;;;;;;;5075274;28;20086;-66
2022/12/08 01:17:57;;;;;;;15.15;10.63;;;;;;;;;;5056468;28;20178;-68
2022/12/08 01:20:23;;;;;;;17.35;11.68;;;;;;;;;;5055188;28;20159;-67
2022/12/08 01:22:50;;;;;;;16.10;10.75;;;;;;;;;;5055217;28;20080;-66
2022/12/08 01:25:17;;;;;;;20.02;12.65;;;;;;;;;;5055058;28;20084;-66
2022/12/08 01:27:43;;;;;;;16.80;11.20;;;;;;;;;;5054849;28;20099;-66
2022/12/08 01:30:12;;;;;;;19.95;11.63;;;;;;;;;;5054719;28;20053;-66
2022/12/08 01:32:38;;;;;;;20.17;11.45;;;;;;;;;;5037683;28;20056;-66
2022/12/08 01:35:05;;;;;;;18.98;10.82;;;;;;;;;;5054927;28;20057;-66
2022/12/08 01:37:32;;;;;;;14.98;10.52;;;;;;;;;;5054644;28;20503;-68
2022/12/08 01:39:58;;;;;;;17.52;11.02;;;;;;;;;;5054484;28;20099;-66
2022/12/08 01:42:25;;;;;;;16.63;10.88;;;;;;;;;;5054668;28;20053;-66
2022/12/08 01:44:55;;;;;;;18.85;11.77;;;;;;;;;;5054469;28;20084;-67
2022/12/08 01:47:23;;;;;;;16.92;11.35;;;;;;;;;;5067485;28;20131;-66
2022/12/08 01:49:49;;;;;;;16.27;11.13;;;;;;;;;;5040137;28;20718;-67
2022/12/08 01:52:44;;;;;;;16.85;11.30;;;;;;;;;;5056928;28;20091;-66
2022/12/08 01:55:19;;;;;;;15.88;11.18;;;;;;;;;;5074095;28;20052;-66
2022/12/08 01:57:49;;;;;;;15.88;10.77;;;;;;;;;;5074528;28;20053;-69
2022/12/08 02:00:18;;;;;;;16.17;11.20;;;;;;;;;;5055749;28;20051;-68
2022/12/08 02:02:53;;;;;;;18.05;11.77;;;;;;;;;;5056646;28;20079;-68
2022/12/08 02:05:22;;;;;;;17.65;11.98;;;;;;;;;;5056496;28;20466;-68
2022/12/08 02:07:49;;;;;;;19.00;12.15;;;;;;;;;;5023066;28;20454;-68
2022/12/08 02:10:20;;;;;;;19.70;12.02;;;;;;;;;;5036602;28;20385;-68
2022/12/08 02:12:48;;;;;;;18.10;11.80;;;;;;;;;;5020784;28;20136;-68
2022/12/08 02:15:14;;;;;;;22.85;13.43;;;;;;;;;;5036646;28;20052;-70
2022/12/08 02:18:09;;;;;;;21.25;13.77;;;;;;;;;;5054196;28;20406;-68
2022/12/08 02:20:37;;;;;;;20.50;12.38;;;;;;;;;;5038628;28;20048;-66
2022/12/08 02:23:03;;;;;;;19.40;12.63;;;;;;;;;;5036533;28;20132;-66
2022/12/08 02:26:03;;;;;;;20.13;12.73;;;;;;;;;;5053726;28;20475;-66
2022/12/08 02:29:01;;;;;;;19.63;11.95;;;;;;;;;;5036102;28;20053;-66
2022/12/08 02:31:36;;;;;;;20.98;13.35;;;;;;;;;;5068805;28;20419;-67
2022/12/08 02:34:28;;;;;;;21.17;13.43;;;;;;;;;;5055979;28;20158;-68
2022/12/08 02:37:10;;;;;;;21.50;13.50;;;;;;;;;;5073538;28;20131;-66
2022/12/08 02:39:49;;;;;;;22.70;13.75;;;;;;;;;;5056779;28;20080;-66
2022/12/08 02:42:28;;;;;;;21.88;13.30;;;;;;;;;;5073580;28;20087;-66
2022/12/08 02:45:19;;;;;;;24.67;14.57;;;;;;;;;;5040992;28;20048;-67
2022/12/08 02:47:46;;;;;;;22.63;15.18;;;;;;;;;;5040594;28;20052;-66
2022/12/08 02:50:13;;;;;;;24.15;13.93;;;;;;;;;;5053146;28;20099;-67
2022/12/08 02:52:44;;;;;;;23.08;15.00;;;;;;;;;;5019294;28;20462;-68
2022/12/08 02:55:18;;;;;;;22.50;14.82;;;;;;;;;;5053350;28;20103;-67
2022/12/08 02:58:16;;;;;;;27.58;16.67;;;;;;;;;;5035571;28;20057;-66
2022/12/08 03:01:23;;;;;;;24.63;15.55;;;;;;;;;;5052087;28;20044;-67
2022/12/08 03:03:56;;;;;;;23.38;14.77;;;;;;;;;;4959588;28;20049;-68
2022/12/08 03:06:47;;;;;;;25.17;14.38;;;;;;;;;;5036326;28;20129;-68
2022/12/08 03:09:40;;;;;;;23.38;14.63;;;;;;;;;;5019894;28;20423;-67
2022/12/08 03:12:44;;;;;;;24.15;15.25;;;;;;;;;;5053022;28;20049;-66
2022/12/08 03:15:14;;;;;;;21.45;14.68;;;;;;;;;;5025508;28;20106;-65
2022/12/08 03:17:44;;;;;;;25.42;15.23;;;;;;;;;;5035137;28;20049;-66
2022/12/08 03:20:13;;;;;;;23.33;14.13;;;;;;;;;;5034497;28;20049;-67
2022/12/08 03:22:40;;;;;;;22.45;15.52;;;;;;;;;;5035086;28;20440;-68
2022/12/08 03:25:08;;;;;;;23.38;15.55;;;;;;;;;;5050552;28;20110;-67
2022/12/08 03:27:34;;;;;;;23.85;13.98;;;;;;;;;;5035313;28;20098;-67
2022/12/08 03:30:01;;;;;;;22.77;14.90;;;;;;;;;;5034532;28;20048;-67
2022/12/08 03:32:48;;;;;;;21.95;14.48;;;;;;;;;;5052578;28;20106;-68
2022/12/08 03:35:34;;;;;;;25.48;15.73;;;;;;;;;;5037413;28;20083;-67
2022/12/08 03:38:06;;;;;;;22.10;13.80;;;;;;;;;;5052459;28;20106;-68
2022/12/08 03:40:33;;;;;;;22.67;15.20;;;;;;;;;;5052301;28;20080;-68
2022/12/08 03:42:59;;;;;;;23.70;16.17;;;;;;;;;;5018499;28;20341;-67
2022/12/08 03:45:26;;;;;;;24.00;15.02;;;;;;;;;;5052239;28;20088;-67
2022/12/08 03:47:53;;;;;;;24.60;15.35;;;;;;;;;;5052079;28;20049;-68
2022/12/08 03:50:27;;;;;;;24.00;14.13;;;;;;;;;;5050946;28;20049;-68
2022/12/08 03:52:54;;;;;;;22.92;15.13;;;;;;;;;;5052713;28;20118;-68
2022/12/08 03:55:21;;;;;;;20.50;13.85;;;;;;;;;;5072051;28;20515;-68
2022/12/08 03:57:47;;;;;;;28.40;16.08;;;;;;;;;;5054220;28;20048;-68
2022/12/08 04:00:14;;;;;;;22.17;15.30;;;;;;;;;;5092643;23;20063;-68
2022/12/08 04:02:41;;;;;;;23.60;14.77;;;;;;;;;;5038021;28;20051;-67
2022/12/08 04:05:08;;;;;;;25.70;15.38;;;;;;;;;;5035726;28;20052;-67
2022/12/08 04:07:35;;;;;;;23.50;14.65;;;;;;;;;;5051844;28;20044;-65
2022/12/08 04:10:03;;;;;;;23.75;15.43;;;;;;;;;;5051983;28;20408;-67
2022/12/08 04:12:30;;;;;;;27.15;16.25;;;;;;;;;;5034329;28;20099;-65
2022/12/08 04:14:56;;;;;;;25.20;14.68;;;;;;;;;;5051696;28;20491;-66
2022/12/08 04:17:23;;;;;;;23.48;14.80;;;;;;;;;;5052033;28;20102;-67
2022/12/08 04:19:50;;;;;;;27.30;16.48;;;;;;;;;;5034246;28;20049;-68
2022/12/08 04:22:16;;;;;;;22.83;15.07;;;;;;;;;;5034031;28;20110;-67
2022/12/08 04:24:43;;;;;;;23.10;15.23;;;;;;;;;;5053054;28;20094;-66
2022/12/08 04:27:09;;;;;;;27.40;16.05;;;;;;;;;;5052352;28;20102;-65
2022/12/08 04:29:36;;;;;;;28.13;15.57;;;;;;;;;;5051377;28;20110;-67
2022/12/08 04:32:03;;;;;;;25.10;15.32;;;;;;;;;;5033859;28;20533;-67
2022/12/08 04:34:30;;;;;;;22.23;15.02;;;;;;;;;;5051841;28;20049;-66
2022/12/08 04:36:56;;;;;;;24.42;15.82;;;;;;;;;;5051810;28;20044;-67
2022/12/08 04:39:23;;;;;;;24.98;16.27;;;;;;;;;;5033551;28;20569;-67
2022/12/08 04:41:49;;;;;;;27.67;15.10;;;;;;;;;;5051383;28;20053;-67
2022/12/08 04:44:16;;;;;;;23.27;15.88;;;;;;;;;;5061965;28;20049;-67
2022/12/08 04:46:43;;;;;;;24.10;15.10;;;;;;;;;;5071617;28;20053;-67
2022/12/08 04:49:09;;;;;;;24.73;15.68;;;;;;;;;;5071513;28;20416;-68
2022/12/08 04:51:36;;;;;;;23.67;14.70;;;;;;;;;;5071410;28;20052;-67
2022/12/08 04:54:03;;;;;;;25.10;15.10;;;;;;;;;;5070875;28;20056;-67
2022/12/08 04:56:30;;;;;;;45.30;28.80;;;;;;;;;;5037055;28;20048;-67
2022/12/08 04:58:56;;;;;;;39.47;26.40;;;;;;;;;;5034993;28;20465;-66
2022/12/08 05:01:23;;;;;;;28.70;19.38;;;;;;;;;;5036908;28;20049;-67
2022/12/08 05:03:50;;;;;;;26.77;15.95;;;;;;;;;;5056308;28;20048;-67
2022/12/08 05:06:17;;;;;;;23.85;15.32;;;;;;;;;;5060055;28;20396;-66
2022/12/08 05:08:44;;;;;;;24.52;15.18;;;;;;;;;;5054466;28;20215;-67
2022/12/08 05:11:11;;;;;;;23.00;14.00;;;;;;;;;;5047074;28;20560;-66
2022/12/08 05:13:38;;;;;;;25.60;14.38;;;;;;;;;;5037110;28;20105;-67
2022/12/08 05:16:13;;;;;;;24.75;15.35;;;;;;;;;;5053451;28;20048;-65
2022/12/08 05:18:41;;;;;;;22.92;15.05;;;;;;;;;;5053046;28;20080;-67
2022/12/08 05:21:08;;;;;;;21.25;14.35;;;;;;;;;;5034599;28;20044;-65
2022/12/08 05:23:35;;;;;;;25.55;16.05;;;;;;;;;;5047257;28;20044;-67
2022/12/08 05:26:01;;;;;;;27.45;15.75;;;;;;;;;;5030400;28;20491;-66
2022/12/08 05:28:28;;;;;;;24.33;15.32;;;;;;;;;;5059747;28;20048;-68
2022/12/08 05:31:07;;;;;;;24.88;15.55;;;;;;;;;;5068885;28;20037;-66
2022/12/08 05:33:34;;;;;;;22.00;15.77;;;;;;;;;;5063218;28;20080;-67
2022/12/08 05:36:00;;;;;;;24.13;15.57;;;;;;;;;;5058980;28;20095;-67
2022/12/08 05:38:28;;;;;;;26.20;16.83;;;;;;;;;;5059330;28;20052;-65
2022/12/08 05:40:54;;;;;;;25.83;17.25;;;;;;;;;;5069237;28;20045;-67
2022/12/08 05:43:21;;;;;;;24.08;15.15;;;;;;;;;;5072471;28;20052;-67
2022/12/08 05:45:48;;;;;;;27.35;15.10;;;;;;;;;;5072809;28;20079;-67
2022/12/08 05:48:15;;;;;;;22.70;15.68;;;;;;;;;;5071496;28;20131;-67
2022/12/08 05:50:46;;;;;;;26.58;16.42;;;;;;;;;;5054726;28;20044;-66
2022/12/08 05:53:14;;;;;;;29.58;15.90;;;;;;;;;;5033321;28;20055;-67
2022/12/08 05:55:41;;;;;;;23.73;15.38;;;;;;;;;;5038893;28;20056;-66
2022/12/08 05:58:11;;;;;;;25.00;15.95;;;;;;;;;;5054536;28;20542;-68
2022/12/08 06:00:37;;;;;;;31.23;17.35;;;;;;;;;;5035777;28;20521;-67
2022/12/08 06:03:04;;;;;;;44.95;23.45;;;;;;;;;;5065487;28;20048;-66
2022/12/08 06:05:33;;;;;;;33.88;20.45;;;;;;;;;;5031259;28;20059;-66
2022/12/08 06:08:00;;;;;;;31.90;19.48;;;;;;;;;;5037826;28;20049;-66
2022/12/08 06:10:27;;;;;;;27.65;17.33;;;;;;;;;;5071695;28;20045;-66
2022/12/08 06:12:54;;;;;;;25.35;16.60;;;;;;;;;;5071430;28;20383;-67
2022/12/08 06:15:21;;;;;;;25.35;16.33;;;;;;;;;;5071904;28;20053;-65
2022/12/08 06:17:47;;;;;;;30.73;16.50;;;;;;;;;;5070077;28;20052;-67
2022/12/08 06:20:14;;;;;;;29.52;16.63;;;;;;;;;;5054241;28;20066;-67
2022/12/08 06:22:41;;;;;;;25.27;16.92;;;;;;;;;;5071994;28;20057;-66
2022/12/08 06:25:08;;;;;;;26.02;16.63;;;;;;;;;;5037592;28;20044;-66
2022/12/08 06:27:35;;;;;;;27.60;17.17;;;;;;;;;;5070426;28;20127;-67
2022/12/08 06:30:02;;;;;;;26.65;16.15;;;;;;;;;;5053956;28;20731;-67
2022/12/08 06:32:30;;;;;;;25.60;15.65;;;;;;;;;;5054284;28;20052;-66
2022/12/08 06:34:56;;;;;;;25.55;16.63;;;;;;;;;;5071787;28;20048;-66
2022/12/08 06:37:23;;;;;;;27.77;16.63;;;;;;;;;;5072264;28;20464;-67
2022/12/08 06:39:50;;;;;;;26.88;15.50;;;;;;;;;;5071786;28;20079;-67
2022/12/08 06:45:02;;;;;;;26.67;16.10;;;;;;;;;;5054836;28;20045;-66
2022/12/08 06:47:29;;;;;;;27.95;16.38;;;;;;;;;;5071880;28;20052;-66
2022/12/08 06:49:55;;;;;;;26.85;17.08;;;;;;;;;;5054059;28;20395;-68
2022/12/08 06:52:22;;;;;;;28.38;17.60;;;;;;;;;;5071306;28;20048;-68
2022/12/08 06:54:49;;;;;;;25.80;16.17;;;;;;;;;;5070300;28;20117;-68
2022/12/08 06:57:17;;;;;;;26.17;15.63;;;;;;;;;;5071082;28;20048;-67
2022/12/08 06:59:43;;;;;;;25.17;16.60;;;;;;;;;;5043829;28;20052;-67
2022/12/08 07:02:10;;;;;;;23.25;16.02;;;;;;;;;;5071107;28;20048;-67
2022/12/08 07:04:37;;;;;;;25.73;17.02;;;;;;;;;;5025671;28;20561;-67
2022/12/08 07:07:06;;;;;;;24.27;16.55;;;;;;;;;;5050967;28;20048;-68
2022/12/08 07:09:33;;;;;;;28.33;17.00;;;;;;;;;;5068402;28;20056;-65
2022/12/08 07:12:00;;;;;;;27.05;17.25;;;;;;;;;;5051135;28;20055;-69
2022/12/08 07:14:27;;;;;;;26.25;16.13;;;;;;;;;;5068960;28;20049;-69
2022/12/08 07:16:53;;;;;;;29.00;17.58;;;;;;;;;;5064824;28;20612;-69
2022/12/08 07:19:20;;;;;;;27.80;17.48;;;;;;;;;;5067544;28;20053;-68
2022/12/08 07:21:47;;;;;;;25.35;16.20;;;;;;;;;;5012786;28;20075;-68
2022/12/08 07:24:13;;;;;;;25.60;16.25;;;;;;;;;;5048598;28;20052;-67
2022/12/08 07:26:40;;;;;;;27.05;16.90;;;;;;;;;;5051789;28;20049;-66
2022/12/08 07:29:08;;;;;;;28.00;17.30;;;;;;;;;;5032192;28;20564;-69
2022/12/08 07:31:35;;;;;;;26.67;16.70;;;;;;;;;;5034675;28;20045;-68
2022/12/08 07:34:02;;;;;;;27.08;17.63;;;;;;;;;;5052251;28;20055;-67
2022/12/08 07:36:29;;;;;;;27.25;17.67;;;;;;;;;;5070202;28;20491;-68
2022/12/08 07:38:55;;;;;;;26.45;16.27;;;;;;;;;;5052379;28;20109;-68
2022/12/08 07:41:24;;;;;;;27.60;16.13;;;;;;;;;;5048564;28;20492;-68
2022/12/08 07:43:52;;;;;;;27.10;16.38;;;;;;;;;;5031677;28;20063;-67
2022/12/08 07:46:20;;;;;;;26.05;17.10;;;;;;;;;;5032773;28;20526;-68
2022/12/08 07:48:47;;;;;;;25.58;16.60;;;;;;;;;;5050175;28;20491;-68
2022/12/08 07:51:14;;;;;;;26.58;17.13;;;;;;;;;;5046844;28;20044;-68
2022/12/08 07:53:42;;;;;;;28.63;17.65;;;;;;;;;;5032399;28;20392;-68
2022/12/08 07:56:15;;;;;;;29.50;18.15;;;;;;;;;;5033078;28;20116;-68
2022/12/08 07:58:44;;;;;;;27.40;16.73;;;;;;;;;;5033381;28;20130;-69
2022/12/08 08:01:23;;;;;;;26.73;18.45;;;;;;;;;;5019580;28;20041;-68
2022/12/08 08:03:50;;;;;;;28.23;17.42;;;;;;;;;;5020081;28;20067;-69
2022/12/08 08:06:16;;;;;;;29.33;17.88;;;;;;;;;;5018625;28;20052;-69
2022/12/08 08:08:43;;;;;;;29.15;17.02;;;;;;;;;;5034086;28;20049;-68
2022/12/08 08:11:10;;;;;;;25.92;17.90;;;;;;;;;;5055621;28;20074;-68
2022/12/08 08:16:21;;;;;;;28.70;17.63;;;;;;;;;;5714759;22;20044;-67
2022/12/08 08:18:49;;;;;;;28.27;16.98;;;;;;;;;;5071853;28;20066;-68
2022/12/08 08:21:16;;;;;;;25.15;15.88;;;;;;;;;;5045022;28;20084;-67
2022/12/08 08:24:03;;;;;;;24.42;16.23;;;;;;;;;;5053515;28;20128;-68
2022/12/08 08:26:30;;;;;;;24.17;16.35;;;;;;;;;;5068340;28;20477;-68
2022/12/08 08:28:57;;;;;;;27.38;16.85;;;;;;;;;;5069987;28;20166;-67
2022/12/08 08:31:25;;;;;;;24.05;15.85;;;;;;;;;;5068978;22;20095;-68
2022/12/08 08:33:52;;;;;;;24.40;16.38;;;;;;;;;;5050408;28;20122;-68
2022/12/08 08:36:20;;;;;;;27.05;17.38;;;;;;;;;;5050558;28;20041;-68
2022/12/08 08:38:47;;;;;;;26.58;17.42;;;;;;;;;;5050112;28;20094;-68
2022/12/08 08:41:14;;;;;;;27.48;17.98;;;;;;;;;;5048119;28;20037;-68
2022/12/08 08:43:40;;;;;;;28.10;16.30;;;;;;;;;;5038929;28;20061;-71
2022/12/08 08:46:08;;;;;;;26.60;16.23;;;;;;;;;;5046000;28;20053;-74
2022/12/08 08:48:35;;;;;;;25.63;16.23;;;;;;;;;;5047999;28;20048;-74
2022/12/08 08:51:08;;;;;;;24.48;16.42;;;;;;;;;;5048197;28;20045;-74
2022/12/08 08:53:36;;;;;;;25.05;15.95;;;;;;;;;;5060785;28;20041;-75
2022/12/08 08:56:07;;;;;;;23.90;15.25;;;;;;;;;;5031985;28;20053;-72
2022/12/08 08:58:33;;;;;;;22.98;15.35;;;;;;;;;;5050057;28;20048;-71
2022/12/08 09:01:00;;;;;;;18.20;13.57;;;;;;;;;;5047801;28;20434;-71
2022/12/08 09:03:26;;;;;;;22.88;13.70;;;;;;;;;;5045330;28;20068;-68
2022/12/08 09:05:54;;;;;;;20.42;14.18;;;;;;;;;;5043477;28;20111;-68
2022/12/08 09:08:22;;;;;;;24.75;13.77;;;;;;;;;;5043562;28;20044;-69
2022/12/08 09:10:49;;;;;;;19.58;13.65;;;;;;;;;;5049337;28;20057;-68
2022/12/08 09:13:16;;;;;;;20.73;13.73;;;;;;;;;;5047090;28;20052;-71
2022/12/08 09:15:43;;;;;;;21.67;13.15;;;;;;;;;;5048161;28;20045;-68
2022/12/08 09:18:09;;;;;;;17.67;11.95;;;;;;;;;;5050152;28;20392;-70
2022/12/08 09:20:36;;;;;;;18.88;12.93;;;;;;;;;;5053663;28;20106;-68
2022/12/08 09:23:03;;;;;;;21.95;13.30;;;;;;;;;;5048467;28;20098;-69
2022/12/08 09:25:29;;;;;;;19.55;12.85;;;;;;;;;;5053578;28;20049;-68
2022/12/08 09:27:56;;;;;;;18.85;12.75;;;;;;;;;;5052810;28;20049;-69
2022/12/08 09:30:23;;;;;;;20.02;12.40;;;;;;;;;;5052999;28;20045;-68
2022/12/08 09:32:49;;;;;;;18.90;12.80;;;;;;;;;;5052026;28;20099;-68
2022/12/08 09:35:16;;;;;;;18.83;12.18;;;;;;;;;;5053361;28;20095;-70
2022/12/08 09:37:43;;;;;;;16.48;11.65;;;;;;;;;;5052722;28;20049;-68
2022/12/08 09:40:14;;;;;;;17.83;12.68;;;;;;;;;;5053199;28;20453;-67
2022/12/08 09:42:47;;;;;;;19.90;12.35;;;;;;;;;;5050530;28;20053;-69
2022/12/08 09:45:15;;;;;;;18.98;12.20;;;;;;;;;;5034477;28;20053;-69
2022/12/08 09:47:44;;;;;;;18.27;11.88;;;;;;;;;;5053017;28;20106;-68
2022/12/08 09:50:14;;;;;;;15.88;11.68;;;;;;;;;;5051220;28;20102;-68
2022/12/08 09:53:10;;;;;;;17.25;11.45;;;;;;;;;;5051840;28;20496;-69
2022/12/08 09:55:44;;;;;;;18.52;11.77;;;;;;;;;;5047217;28;20056;-71
2022/12/08 09:58:46;;;;;;;16.58;11.20;;;;;;;;;;5048213;28;20049;-68
2022/12/08 10:01:13;;;;;;;15.00;10.70;;;;;;;;;;5037186;28;20075;-69
2022/12/08 10:03:40;;;;;;;16.25;11.10;;;;;;;;;;5049425;28;20079;-69
2022/12/08 10:06:11;;;;;;;17.40;11.77;;;;;;;;;;5050484;28;20052;-69
2022/12/08 10:08:46;;;;;;;15.10;10.32;;;;;;;;;;5051288;28;20057;-68
2022/12/08 10:11:14;;;;;;;13.55;10.07;;;;;;;;;;5031332;28;20454;-68
2022/12/08 10:13:47;;;;;;;13.30;9.70;;;;;;;;;;5029323;28;20095;-70
2022/12/08 10:16:33;;;;;;;13.77;9.40;;;;;;;;;;5049359;28;20049;-69
2022/12/08 10:19:10;;;;;;;13.18;9.77;;;;;;;;;;5042700;28;20435;-70
2022/12/08 10:21:36;;;;;;;13.43;9.75;;;;;;;;;;5032185;28;20106;-68
2022/12/08 10:24:09;;;;;;;11.57;8.18;;;;;;;;;;5033409;28;20624;-70
2022/12/08 10:26:35;;;;;;;11.70;7.55;;;;;;;;;;5034060;28;20048;-69
2022/12/08 10:29:02;;;;;;;10.75;7.22;;;;;;;;;;5051954;28;20052;-68
2022/12/08 10:31:29;;;;;;;10.45;7.40;;;;;;;;;;5051524;28;20507;-68
2022/12/08 10:33:58;;;;;;;10.50;6.80;;;;;;;;;;5051882;28;20047;-69
2022/12/08 10:36:45;;;;;;;8.52;6.78;;;;;;;;;;5051516;28;20126;-68
2022/12/08 10:39:32;;;;;;;10.45;7.82;;;;;;;;;;5051598;28;20519;-69
2022/12/08 10:42:20;;;;;;;9.73;7.20;;;;;;;;;;5047239;28;20115;-68
2022/12/08 10:44:49;;;;;;;15.02;7.72;;;;;;;;;;5049666;28;20076;-69
2022/12/08 10:47:19;;;;;;;9.85;7.55;;;;;;;;;;5051336;28;20503;-69
2022/12/08 10:49:45;;;;;;;12.27;7.75;;;;;;;;;;5034555;28;20110;-68
2022/12/08 10:52:22;;;;;;;12.18;8.23;;;;;;;;;;5050573;28;20063;-69
2022/12/08 10:54:53;;;;;;;10.70;6.97;;;;;;;;;;5048718;28;20412;-68
2022/12/08 10:57:21;;;;;;;9.65;7.40;;;;;;;;;;5051359;28;20102;-68
2022/12/08 10:59:48;;;;;;;8.77;6.80;;;;;;;;;;5049934;28;20496;-68
2022/12/08 11:02:17;;;;;;;10.43;6.78;;;;;;;;;;5050730;28;20091;-71
2022/12/08 11:04:45;;;;;;;9.50;5.70;;;;;;;;;;5050253;28;20048;-69
2022/12/08 11:07:19;;;;;;;9.82;6.95;;;;;;;;;;5033283;28;20053;-68
2022/12/08 11:09:47;;;;;;;9.63;7.60;;;;;;;;;;5051090;28;20048;-68
2022/12/08 11:12:18;;;;;;;9.63;5.93;;;;;;;;;;5029641;28;20132;-68
2022/12/08 11:15:00;;;;;;;8.35;5.70;;;;;;;;;;5032039;28;20103;-68
2022/12/08 11:17:28;;;;;;;9.45;6.40;;;;;;;;;;5031462;28;20065;-70
2022/12/08 11:19:56;;;;;;;9.15;6.60;;;;;;;;;;5031608;28;20095;-69
2022/12/08 11:22:33;;;;;;;11.65;7.18;;;;;;;;;;5038205;28;20053;-70
2022/12/08 11:25:06;;;;;;;7.53;6.40;;;;;;;;;;5052877;28;20053;-71
2022/12/08 11:27:35;;;;;;;10.63;6.30;;;;;;;;;;5049133;28;20057;-70
2022/12/08 11:30:05;;;;;;;9.75;6.53;;;;;;;;;;5026383;28;20515;-67
2022/12/08 11:32:41;;;;;;;9.18;6.35;;;;;;;;;;5044263;28;20463;-67
2022/12/08 11:35:08;;;;;;;7.80;6.03;;;;;;;;;;5050990;28;20049;-67
2022/12/08 11:37:38;;;;;;;10.13;6.25;;;;;;;;;;5049156;28;20087;-67
2022/12/08 11:40:17;;;;;;;8.20;5.78;;;;;;;;;;5044606;28;20053;-67
2022/12/08 11:43:14;;;;;;;8.10;5.60;;;;;;;;;;5013597;28;20053;-70
2022/12/08 11:45:41;;;;;;;7.22;5.35;;;;;;;;;;5031605;28;20190;-75
2022/12/08 11:48:18;;;;;;;8.63;5.65;;;;;;;;;;5049133;28;20059;-67
2022/12/08 11:50:54;;;;;;;7.82;5.40;;;;;;;;;;5043073;28;20053;-66
2022/12/08 11:53:48;;;;;;;9.15;5.88;;;;;;;;;;5049534;28;20049;-70
2022/12/08 11:56:21;;;;;;;8.77;5.90;;;;;;;;;;5049252;28;20067;-72
2022/12/08 11:58:51;;;;;;;9.43;7.28;;;;;;;;;;5048922;28;20053;-71
2022/12/08 12:01:20;;;;;;;8.35;6.60;;;;;;;;;;5030820;28;20126;-71
2022/12/08 12:03:54;;;;;;;8.93;6.72;;;;;;;;;;5046940;28;20057;-73
2022/12/08 12:06:33;;;;;;;9.73;6.25;;;;;;;;;;5033129;28;20055;-69
2022/12/08 12:09:46;;;;;;;11.07;6.35;;;;;;;;;;5046728;28;20550;-67
2022/12/08 12:12:24;;;;;;;10.00;5.90;;;;;;;;;;5044763;28;20041;-68
2022/12/08 12:15:16;;;;;;;7.10;5.60;;;;;;;;;;5048633;28;20044;-67
2022/12/08 12:17:51;;;;;;;10.10;7.80;;;;;;;;;;5050151;28;20060;-68
2022/12/08 12:20:24;;;;;;;7.82;5.55;;;;;;;;;;5048568;28;20048;-68
2022/12/08 12:23:15;;;;;;;7.07;5.78;;;;;;;;;;5044106;28;20049;-71
2022/12/08 12:26:09;;;;;;;8.25;5.95;;;;;;;;;;5034071;28;20565;-69
2022/12/08 12:28:41;;;;;;;7.70;5.68;;;;;;;;;;5045740;28;20053;-69
2022/12/08 12:31:12;;;;;;;6.38;4.97;;;;;;;;;;5046752;28;20495;-69
2022/12/08 12:33:41;;;;;;;6.35;5.15;;;;;;;;;;5046493;28;20053;-68
2022/12/08 12:36:08;;;;;;;5.95;4.65;;;;;;;;;;5048157;28;20451;-68
2022/12/08 12:39:05;;;;;;;6.60;4.65;;;;;;;;;;4979261;28;20059;-69
2022/12/08 12:41:37;;;;;;;7.43;4.65;;;;;;;;;;5047016;28;20144;-70
2022/12/08 12:44:13;;;;;;;5.13;4.38;;;;;;;;;;5048140;28;20091;-69
2022/12/08 12:46:45;;;;;;;5.38;3.78;;;;;;;;;;5048964;28;20053;-69
2022/12/08 12:49:42;;;;;;;7.30;4.35;;;;;;;;;;5049681;28;20458;-68
2022/12/08 12:52:09;;;;;;;4.55;3.47;;;;;;;;;;5049078;28;20053;-73
2022/12/08 12:54:36;;;;;;;4.53;3.40;;;;;;;;;;5050479;28;20060;-70
2022/12/08 12:57:11;;;;;;;6.47;4.05;;;;;;;;;;5035066;28;20048;-71
2022/12/08 12:59:51;;;;;;;7.35;4.00;;;;;;;;;;5050376;28;20052;-66
2022/12/08 13:02:44;;;;;;;9.10;4.40;;;;;;;;;;5048143;28;20044;-70
2022/12/08 13:05:23;;;;;;;6.50;4.25;;;;;;;;;;5051012;28;20049;-68
2022/12/08 13:08:15;;;;;;;5.05;3.67;;;;;;;;;;5051684;28;20122;-69
2022/12/08 13:11:03;;;;;;;5.05;3.97;;;;;;;;;;5037237;28;20088;-71
2022/12/08 13:13:30;;;;;;;5.88;3.90;;;;;;;;;;5051749;28;20048;-68
2022/12/08 13:16:18;;;;;;;5.75;4.10;;;;;;;;;;5053500;28;20053;-68
2022/12/08 13:18:49;;;;;;;6.95;4.65;;;;;;;;;;5051882;28;20049;-66
2022/12/08 13:21:20;;;;;;;6.30;3.45;;;;;;;;;;5051346;28;20072;-69
2022/12/08 13:23:48;;;;;;;5.25;3.83;;;;;;;;;;5048623;28;20150;-66
2022/12/08 13:26:19;;;;;;;6.05;4.03;;;;;;;;;;5052157;28;20059;-70
2022/12/08 13:29:00;;;;;;;7.07;4.25;;;;;;;;;;5043645;28;20054;-69
2022/12/08 13:31:39;;;;;;;6.57;4.88;;;;;;;;;;5049304;28;20049;-70
2022/12/08 13:34:30;;;;;;;6.38;4.50;;;;;;;;;;5052115;28;20503;-69
2022/12/08 13:37:09;;;;;;;9.02;4.28;;;;;;;;;;5053128;28;20041;-70
2022/12/08 13:39:39;;;;;;;7.05;4.60;;;;;;;;;;5049791;28;20053;-67
2022/12/08 13:42:06;;;;;;;6.18;4.30;;;;;;;;;;5040100;28;20098;-70
2022/12/08 13:45:01;;;;;;;8.02;4.18;;;;;;;;;;5052696;28;20091;-71
2022/12/08 13:48:16;;;;;;;5.35;4.55;;;;;;;;;;5041359;28;20135;-71
2022/12/08 13:51:12;;;;;;;5.28;3.80;;;;;;;;;;5044124;28;20049;-67
2022/12/08 13:54:06;;;;;;;5.05;3.45;;;;;;;;;;5036745;28;20045;-71
2022/12/08 13:56:53;;;;;;;5.57;4.00;;;;;;;;;;5050920;28;20128;-69
2022/12/08 13:59:42;;;;;;;5.30;4.13;;;;;;;;;;5034940;28;20052;-67
2022/12/08 14:02:17;;;;;;;8.07;4.18;;;;;;;;;;5052353;28;20536;-68
2022/12/08 14:04:46;;;;;;;5.15;4.25;;;;;;;;;;5050829;28;20057;-68
2022/12/08 14:07:33;;;;;;;6.57;4.40;;;;;;;;;;5036227;28;20048;-70
2022/12/08 14:10:02;;;;;;;5.50;3.95;;;;;;;;;;5051805;28;20053;-68
2022/12/08 14:12:29;;;;;;;5.82;4.07;;;;;;;;;;5032870;28;20077;-69
2022/12/08 14:14:58;;;;;;;6.53;4.85;;;;;;;;;;5045927;28;20045;-71
2022/12/08 14:17:43;;;;;;;7.40;5.07;;;;;;;;;;5035999;28;20140;-68
2022/12/08 14:20:10;;;;;;;6.57;4.65;;;;;;;;;;5034366;28;20352;-68
2022/12/08 14:22:38;;;;;;;7.70;5.18;;;;;;;;;;5049559;28;20255;-69
2022/12/08 14:25:07;;;;;;;6.53;4.32;;;;;;;;;;5051532;28;20096;-68
2022/12/08 14:27:35;;;;;;;5.63;3.63;;;;;;;;;;5051442;28;20056;-71
2022/12/08 14:30:12;;;;;;;8.75;5.80;;;;;;;;;;5050757;28;20056;-71
2022/12/08 14:32:49;;;;;;;8.95;5.50;;;;;;;;;;5075633;22;20507;-71
2022/12/08 14:35:22;;;;;;;5.90;4.18;;;;;;;;;;5054501;28;20044;-70
2022/12/08 14:37:50;;;;;;;6.82;4.47;;;;;;;;;;5071963;28;20414;-71
2022/12/08 14:40:17;;;;;;;5.95;4.38;;;;;;;;;;5038066;28;20048;-70
2022/12/08 14:42:52;;;;;;;6.20;4.97;;;;;;;;;;5052016;28;20043;-70
2022/12/08 14:45:19;;;;;;;7.75;5.55;;;;;;;;;;5023968;28;20053;-70
2022/12/08 14:47:47;;;;;;;7.60;5.65;;;;;;;;;;5022004;28;20081;-66
2022/12/08 14:50:32;;;;;;;6.82;5.03;;;;;;;;;;5040567;28;20116;-69
2022/12/08 14:52:59;;;;;;;6.38;4.30;;;;;;;;;;5042523;28;20392;-73
2022/12/08 14:55:27;;;;;;;5.85;3.90;;;;;;;;;;5030118;28;20624;-72
2022/12/08 14:57:53;;;;;;;4.90;4.20;;;;;;;;;;5031071;28;20045;-73